Time;durP1;ratioP1;P1;durP2;ratioP2;P2;SDS_P1;SDS_P2;PMS_P1;PMS_P2;Temp;Humidity;BMP_temperature;BMP_pressure;BME280_temperature;BME280_humidity;BME280_pressure;Samples;Min_cycle;Max_cycle;Signal;HPM_P1;HPM_P2
2022/10/17 16:46:40;;;;;;;37.23;17.13;;;;;;;14.04;53.08;96281.44;5097716;27;20600;-81
2022/10/17 16:49:06;;;;;;;40.93;15.83;;;;;;;14.19;54.17;96317.38;5076025;28;20186;-81
2022/10/17 16:51:35;;;;;;;44.27;22.07;;;;;;;14.17;54.34;96318.59;5078380;28;20185;-80
2022/10/17 16:54:00;;;;;;;65.37;26.40;;;;;;;14.04;54.80;96326.47;5080823;28;20245;-80
2022/10/17 16:56:31;;;;;;;58.63;21.90;;;;;;;14.00;55.72;96319.94;5069176;28;20257;-80
2022/10/17 16:58:58;;;;;;;58.03;24.60;;;;;;;13.94;56.25;96327.63;5076150;28;20183;-81
2022/10/17 17:01:24;;;;;;;67.17;29.13;;;;;;;13.91;56.36;96328.03;5071487;28;20177;-81
2022/10/17 17:03:52;;;;;;;53.27;25.87;;;;;;;13.80;56.76;96333.06;5074272;28;20630;-80
2022/10/17 17:06:20;;;;;;;59.40;28.77;;;;;;;13.71;57.71;96336.88;5061865;28;20193;-80
2022/10/17 17:08:46;;;;;;;60.43;28.37;;;;;;;13.46;58.81;96333.84;5071955;28;20182;-81
2022/10/17 17:11:14;;;;;;;62.03;28.70;;;;;;;13.37;59.71;96341.09;5063655;28;20630;-81
2022/10/17 17:13:40;;;;;;;60.97;30.17;;;;;;;13.22;60.93;96324.50;5065211;28;20174;-81
2022/10/17 17:16:12;;;;;;;66.80;30.80;;;;;;;13.21;61.11;96346.66;5064388;28;20181;-80
2022/10/17 17:18:39;;;;;;;64.10;28.40;;;;;;;13.17;61.51;96351.50;5078638;28;20263;-80
2022/10/17 17:21:09;;;;;;;66.00;27.23;;;;;;;13.11;61.43;96346.13;5088545;28;20176;-80
2022/10/17 17:23:37;;;;;;;79.50;35.33;;;;;;;12.99;61.56;96344.97;5072752;28;20798;-80
2022/10/17 17:26:05;;;;;;;86.03;34.70;;;;;;;12.95;61.83;96352.47;5068264;28;20229;-80
2022/10/17 17:28:32;;;;;;;68.63;30.70;;;;;;;12.67;62.73;96319.84;5059657;28;20181;-80
2022/10/17 17:30:58;;;;;;;70.27;33.30;;;;;;;12.73;63.11;96350.81;5056127;28;20187;-82
2022/10/17 17:33:25;;;;;;;75.87;32.67;;;;;;;12.64;63.70;96351.94;5068001;28;20236;-81
2022/10/17 17:35:58;;;;;;;76.70;35.40;;;;;;;12.57;63.92;96353.69;5058168;28;20183;-81
2022/10/17 17:38:25;;;;;;;83.40;35.37;;;;;;;12.50;64.35;96356.25;5067305;28;20178;-80
2022/10/17 17:40:50;;;;;;;76.67;35.73;;;;;;;12.43;64.60;96360.66;5068693;28;20177;-81
2022/10/17 17:43:16;;;;;;;90.40;37.97;;;;;;;12.19;65.19;96358.31;5073509;28;20173;-80
2022/10/17 17:45:42;;;;;;;85.07;34.90;;;;;;;12.06;66.16;96346.56;5066927;28;20716;-80
2022/10/17 17:48:07;;;;;;;110.43;40.73;;;;;;;11.98;66.75;96351.94;5068622;28;20208;-80
2022/10/17 17:50:36;;;;;;;79.20;40.00;;;;;;;11.72;66.59;96312.78;5070402;28;20184;-81
2022/10/17 17:53:02;;;;;;;93.47;37.87;;;;;;;11.97;66.92;96367.94;5066995;28;20179;-80
2022/10/17 17:55:27;;;;;;;89.70;40.30;;;;;;;11.88;67.34;96353.22;5068256;28;20244;-80
2022/10/17 17:57:53;;;;;;;107.77;45.57;;;;;;;11.75;67.84;96360.94;5060930;28;20175;-80
2022/10/17 18:00:18;;;;;;;78.40;40.23;;;;;;;11.70;68.00;96367.53;5054249;28;20602;-81
2022/10/17 18:02:43;;;;;;;90.10;39.77;;;;;;;11.54;68.81;96357.16;5053533;28;20607;-81
2022/10/17 18:05:09;;;;;;;110.33;41.97;;;;;;;11.56;68.82;96360.44;5052417;28;20197;-81
2022/10/17 18:07:36;;;;;;;102.07;46.67;;;;;;;11.58;69.17;96378.72;5056034;28;20207;-80
2022/10/17 18:10:03;;;;;;;136.23;63.40;;;;;;;11.39;69.18;96348.41;5053196;28;20209;-80
2022/10/17 18:12:29;;;;;;;158.73;74.43;;;;;;;11.47;69.52;96373.88;5088199;28;20187;-81
2022/10/17 18:14:55;;;;;;;149.17;75.30;;;;;;;11.41;70.01;96374.59;5053075;28;20164;-81
2022/10/17 18:17:20;;;;;;;147.23;69.47;;;;;;;11.37;70.49;96382.03;5053381;28;20170;-80
2022/10/17 18:19:46;;;;;;;124.07;60.73;;;;;;;11.33;70.93;96384.19;5047690;28;20175;-80
2022/10/17 18:22:11;;;;;;;110.90;52.43;;;;;;;11.24;70.96;96382.63;5067295;28;20175;-79
2022/10/17 18:24:36;;;;;;;90.17;42.80;;;;;;;11.15;71.16;96383.69;5054781;28;20553;-78
2022/10/17 18:27:02;;;;;;;86.10;47.27;;;;;;;10.99;71.63;96354.81;5054277;28;20178;-80
2022/10/17 18:29:28;;;;;;;87.53;42.17;;;;;;;11.04;71.74;96372.75;5058275;28;20232;-80
2022/10/17 18:31:54;;;;;;;94.53;40.53;;;;;;;11.02;72.05;96372.09;5059375;28;20175;-80
2022/10/17 18:34:19;;;;;;;95.40;47.33;;;;;;;10.98;72.48;96382.97;5054684;28;20666;-80
2022/10/17 18:36:45;;;;;;;86.47;38.60;;;;;;;10.89;72.87;96384.03;5057602;28;20259;-80
2022/10/17 18:39:10;;;;;;;75.10;39.10;;;;;;;10.89;72.93;96388.50;5060311;28;20182;-80
2022/10/17 18:41:36;;;;;;;92.20;39.83;;;;;;;10.47;73.05;96323.06;5056337;28;20179;-80
2022/10/17 18:44:04;;;;;;;82.30;41.63;;;;;;;10.82;73.26;96390.97;5061853;28;20179;-80
2022/10/17 18:46:35;;;;;;;77.07;40.87;;;;;;;10.79;73.21;96378.19;5054413;28;20612;-80
2022/10/17 18:49:00;;;;;;;95.40;45.20;;;;;;;10.51;73.39;96348.88;5055325;28;20242;-81
2022/10/17 18:51:27;;;;;;;91.27;43.10;;;;;;;10.57;74.02;96373.69;5061546;28;20606;-81
2022/10/17 18:53:57;;;;;;;190.60;71.83;;;;;;;10.58;73.97;96380.59;5062104;28;20179;-81
2022/10/17 18:56:23;;;;;;;1036.97;461.20;;;;;;;10.50;74.16;96370.09;5060392;28;20167;-81
2022/10/17 18:58:48;;;;;;;1093.57;482.00;;;;;;;10.54;74.38;96390.66;5055967;28;20580;-82
2022/10/17 19:01:17;;;;;;;1999.90;999.90;;;;;;;10.50;74.44;96396.44;5059734;28;20555;-81
2022/10/17 19:03:44;;;;;;;1999.90;999.90;;;;;;;10.49;74.45;96397.44;5060512;28;20198;-80
2022/10/17 19:06:11;;;;;;;820.43;193.70;;;;;;;10.45;74.71;96406.66;5061727;28;20198;-80
2022/10/17 19:08:37;;;;;;;1649.97;738.17;;;;;;;10.37;74.97;96402.28;5058680;28;20261;-80
2022/10/17 19:11:08;;;;;;;926.93;196.70;;;;;;;10.32;74.92;96409.84;5056879;28;20190;-80
2022/10/17 19:13:34;;;;;;;1016.83;283.27;;;;;;;10.25;75.06;96410.69;5061027;28;20185;-81
2022/10/17 19:16:07;;;;;;;840.30;183.07;;;;;;;10.09;75.39;96391.31;5059323;28;20246;-82
2022/10/17 19:18:33;;;;;;;988.03;231.60;;;;;;;10.08;75.71;96397.56;5053446;28;20212;-83
2022/10/17 19:21:03;;;;;;;1312.77;464.83;;;;;;;9.90;76.08;96396.94;5060096;28;20184;-83
2022/10/17 19:23:29;;;;;;;471.83;126.53;;;;;;;9.69;76.52;96368.56;5056677;28;20178;-83
2022/10/17 19:26:01;;;;;;;243.30;133.15;;;;;;;9.95;77.07;96413.03;5057365;28;21023;-80
2022/10/17 19:28:27;;;;;;;242.87;103.80;;;;;;;9.88;77.02;96413.88;5064028;28;20266;-80
2022/10/17 19:30:53;;;;;;;335.90;137.33;;;;;;;9.80;77.13;96394.50;5056692;28;20249;-80
2022/10/17 19:33:19;;;;;;;345.60;141.47;;;;;;;9.90;76.76;96410.09;5058705;28;20224;-81
2022/10/17 19:35:52;;;;;;;352.13;134.40;;;;;;;9.80;76.45;96385.78;5057439;28;20171;-80
2022/10/17 19:38:18;;;;;;;312.47;132.83;;;;;;;9.76;76.65;96380.06;5054871;28;20182;-80
2022/10/17 19:40:43;;;;;;;295.87;113.13;;;;;;;9.97;76.43;96416.34;5054448;28;20235;-81
2022/10/17 19:43:09;;;;;;;313.03;124.63;;;;;;;9.59;76.04;96365.31;5062400;28;20214;-81
2022/10/17 19:45:34;;;;;;;253.03;96.27;;;;;;;9.88;75.88;96416.50;5055681;28;20656;-81
2022/10/17 19:47:59;;;;;;;198.70;77.27;;;;;;;9.76;75.77;96411.63;5062398;28;20174;-80
2022/10/17 19:50:25;;;;;;;274.43;81.47;;;;;;;9.64;76.02;96396.34;5058974;28;20253;-80
2022/10/17 19:52:50;;;;;;;255.67;97.83;;;;;;;9.73;76.66;96411.94;5063157;28;20677;-81
2022/10/17 19:55:16;;;;;;;231.37;95.87;;;;;;;9.72;76.39;96409.47;5065091;28;20177;-80
2022/10/17 19:57:41;;;;;;;265.30;92.33;;;;;;;9.73;76.69;96417.22;5060844;28;20178;-81
2022/10/17 20:00:07;;;;;;;240.23;91.77;;;;;;;9.65;76.27;96411.13;5067550;28;20266;-81
2022/10/17 20:02:33;;;;;;;237.63;86.57;;;;;;;9.70;76.32;96425.41;5063590;28;20163;-81
2022/10/17 20:04:58;;;;;;;211.60;77.57;;;;;;;9.68;76.43;96423.97;5076234;28;20252;-81
2022/10/17 20:07:23;;;;;;;230.20;76.27;;;;;;;9.44;76.61;96394.06;5058347;28;20182;-82
2022/10/17 20:09:49;;;;;;;202.87;72.33;;;;;;;9.25;76.49;96370.78;5063192;28;20238;-83
2022/10/17 20:12:14;;;;;;;200.30;53.07;;;;;;;9.21;76.34;96379.97;5062270;28;20178;-83
2022/10/17 20:14:39;;;;;;;179.40;54.03;;;;;;;9.16;76.31;96384.91;5063567;28;20258;-81
2022/10/17 20:17:05;;;;;;;229.27;64.17;;;;;;;9.39;76.97;96424.47;5059419;28;20708;-81
2022/10/17 20:19:31;;;;;;;121.23;38.10;;;;;;;9.38;76.65;96428.06;5060344;28;20201;-81
2022/10/17 20:21:56;;;;;;;118.03;43.00;;;;;;;9.12;76.51;96396.69;5065889;28;20170;-82
2022/10/17 20:24:21;;;;;;;121.80;37.67;;;;;;;9.24;76.48;96418.22;5057387;28;20175;-82
2022/10/17 20:26:47;;;;;;;114.40;35.90;;;;;;;9.10;76.26;96406.53;5059173;28;20296;-82
2022/10/17 20:29:16;;;;;;;131.00;35.90;;;;;;;9.28;76.38;96430.88;5065818;28;20257;-83
2022/10/17 20:31:43;;;;;;;138.23;35.80;;;;;;;9.19;76.50;96418.69;5075707;28;20182;-84
2022/10/17 20:34:12;;;;;;;112.93;31.30;;;;;;;9.18;76.75;96411.81;5060391;28;20269;-81
2022/10/17 20:36:37;;;;;;;118.03;31.47;;;;;;;8.94;76.61;96383.72;5058624;28;20191;-82
2022/10/17 20:39:04;;;;;;;114.83;35.40;;;;;;;8.99;76.83;96406.88;5063608;28;20175;-82
2022/10/17 20:41:29;;;;;;;161.63;34.73;;;;;;;9.07;76.79;96409.50;5057194;28;20178;-82
2022/10/17 20:43:55;;;;;;;96.23;30.93;;;;;;;9.00;77.07;96403.25;5050748;28;20163;-79
2022/10/17 20:46:21;;;;;;;112.80;30.93;;;;;;;8.93;77.17;96397.81;5051147;28;20733;-79
2022/10/17 20:48:51;;;;;;;137.90;38.00;;;;;;;8.78;76.99;96382.88;5058805;28;20183;-82
2022/10/17 20:51:17;;;;;;;116.17;34.67;;;;;;;8.95;77.68;96408.19;5052731;28;20250;-82
2022/10/17 20:53:42;;;;;;;121.90;35.70;;;;;;;8.80;77.38;96387.00;5060422;28;20705;-82
2022/10/17 20:56:16;;;;;;;130.73;34.83;;;;;;;8.88;77.59;96405.38;5064462;28;20170;-82
2022/10/17 20:58:42;;;;;;;171.10;48.13;;;;;;;8.77;77.34;96402.22;5057786;28;20185;-81
2022/10/17 21:01:09;;;;;;;145.77;43.20;;;;;;;8.58;77.97;96392.84;5059901;28;20167;-81
2022/10/17 21:03:38;;;;;;;209.50;70.87;;;;;;;8.40;78.09;96377.19;5059201;28;20185;-82
2022/10/17 21:06:04;;;;;;;205.30;70.77;;;;;;;8.43;78.84;96379.50;5059383;28;20225;-83
2022/10/17 21:08:29;;;;;;;123.10;47.80;;;;;;;8.56;78.63;96408.72;5063367;28;20661;-82
2022/10/17 21:11:15;;;;;;;116.80;48.23;;;;;;;8.44;78.62;96388.22;5072006;28;20151;-82
2022/10/17 21:13:41;;;;;;;145.50;51.17;;;;;;;8.55;78.84;96409.75;5060103;28;20668;-82
2022/10/17 21:16:16;;;;;;;143.97;53.37;;;;;;;8.55;78.38;96403.66;5059228;28;20166;-82
2022/10/17 21:18:42;;;;;;;103.87;40.43;;;;;;;8.55;78.36;96401.88;5056271;28;20245;-82
2022/10/17 21:21:29;;;;;;;92.10;35.93;;;;;;;8.46;77.99;96413.31;5062636;28;20684;-82
2022/10/17 21:24:02;;;;;;;102.17;33.17;;;;;;;8.35;78.75;96412.78;5057308;28;20162;-82
2022/10/17 21:26:28;;;;;;;73.67;30.30;;;;;;;8.14;78.95;96384.28;5051730;28;20179;-82
2022/10/17 21:28:53;;;;;;;72.63;29.37;;;;;;;8.23;78.98;96399.09;5051742;28;20167;-82
2022/10/17 21:31:20;;;;;;;83.03;30.97;;;;;;;8.28;79.07;96413.38;5051680;28;20977;-82
2022/10/17 21:33:54;;;;;;;82.60;31.43;;;;;;;7.99;79.11;96362.25;5063000;28;21130;-82
2022/10/17 21:36:20;;;;;;;111.53;41.23;;;;;;;8.24;78.81;96412.03;5059478;28;20179;-82
2022/10/17 21:38:48;;;;;;;103.03;40.53;;;;;;;8.20;78.63;96420.41;5068343;28;20224;-82
2022/10/17 21:41:15;;;;;;;95.23;37.53;;;;;;;8.18;78.92;96412.69;5066777;28;20174;-82
2022/10/17 21:43:42;;;;;;;121.23;39.90;;;;;;;8.17;79.59;96416.28;5075128;28;20516;-82
2022/10/17 21:46:12;;;;;;;102.70;39.67;;;;;;;8.09;79.84;96404.94;5074779;28;20254;-82
2022/10/17 21:48:38;;;;;;;95.80;36.77;;;;;;;8.06;79.51;96405.22;5075196;28;20547;-82
2022/10/17 21:51:06;;;;;;;111.63;37.00;;;;;;;7.99;79.78;96391.09;5074853;28;20660;-82
2022/10/17 21:53:32;;;;;;;83.90;30.83;;;;;;;8.02;79.30;96402.13;5075485;28;20150;-82
2022/10/17 21:55:59;;;;;;;101.40;37.13;;;;;;;8.05;79.69;96416.69;5074882;28;20155;-82
2022/10/17 21:58:25;;;;;;;100.17;33.40;;;;;;;7.96;79.74;96405.34;5074789;28;20166;-82
2022/10/17 22:00:50;;;;;;;77.30;28.67;;;;;;;7.99;80.00;96417.34;5074883;28;20159;-82
2022/10/17 22:03:16;;;;;;;91.67;28.13;;;;;;;7.58;80.14;96352.41;5058827;28;20666;-82
2022/10/17 22:05:42;;;;;;;73.80;26.63;;;;;;;7.58;80.43;96359.44;5063659;28;20194;-82
2022/10/17 22:08:07;;;;;;;73.30;25.80;;;;;;;7.76;79.52;96380.34;5064421;28;20258;-82
2022/10/17 22:10:36;;;;;;;63.60;24.97;;;;;;;7.53;79.28;96338.94;5060689;28;20321;-82
2022/10/17 22:13:01;;;;;;;63.80;25.00;;;;;;;7.91;79.46;96408.44;5054655;28;20306;-82
2022/10/17 22:15:28;;;;;;;67.33;24.33;;;;;;;7.89;79.98;96407.78;5064062;28;20264;-81
2022/10/17 22:17:53;;;;;;;55.93;24.00;;;;;;;7.89;79.82;96401.72;5062087;28;20713;-81
2022/10/17 22:20:19;;;;;;;52.10;24.63;;;;;;;7.83;79.69;96408.41;5068659;28;20413;-82
2022/10/17 22:22:44;;;;;;;53.63;24.77;;;;;;;7.50;80.02;96362.03;5057471;28;20256;-79
2022/10/17 22:25:09;;;;;;;51.23;21.93;;;;;;;7.55;79.91;96364.97;5054170;28;20191;-80
2022/10/17 22:27:35;;;;;;;48.13;23.00;;;;;;;7.72;80.02;96399.97;5062957;28;20182;-80
2022/10/17 22:30:00;;;;;;;63.93;25.47;;;;;;;7.53;79.91;96367.75;5063083;28;20174;-80
2022/10/17 22:32:25;;;;;;;75.87;25.10;;;;;;;7.57;80.09;96379.59;5062942;28;20176;-80
2022/10/17 22:34:51;;;;;;;60.13;24.70;;;;;;;7.81;79.58;96412.97;5063024;28;20167;-82
2022/10/17 22:37:16;;;;;;;53.57;25.23;;;;;;;7.70;79.63;96404.53;5054278;28;20578;-82
2022/10/17 22:39:42;;;;;;;67.77;26.90;;;;;;;7.73;79.42;96406.88;5069612;28;20182;-79
2022/10/17 22:42:07;;;;;;;68.00;28.43;;;;;;;7.36;79.51;96350.28;5069328;28;20175;-80
2022/10/17 22:44:32;;;;;;;75.27;30.87;;;;;;;7.67;79.61;96408.31;5052372;28;20740;-81
2022/10/17 22:46:58;;;;;;;79.80;24.83;;;;;;;7.62;79.49;96402.69;5054314;28;20162;-81
2022/10/17 22:49:23;;;;;;;65.27;25.63;;;;;;;7.42;80.00;96385.53;5053867;28;20546;-80
2022/10/17 22:51:48;;;;;;;67.57;26.50;;;;;;;7.45;79.99;96393.91;5054031;28;20167;-80
2022/10/17 22:54:14;;;;;;;54.83;23.23;;;;;;;7.51;80.09;96402.97;5054308;28;20155;-80
2022/10/17 22:56:39;;;;;;;58.67;22.37;;;;;;;7.34;80.07;96385.50;5053746;28;20167;-80
2022/10/17 22:59:05;;;;;;;49.57;22.70;;;;;;;7.27;80.35;96373.94;5054353;28;20162;-80
2022/10/17 23:01:30;;;;;;;47.47;22.83;;;;;;;7.06;80.33;96335.84;5053875;28;20166;-80
2022/10/17 23:03:56;;;;;;;52.67;22.83;;;;;;;7.18;80.49;96366.03;5072845;28;20170;-80
2022/10/17 23:06:21;;;;;;;47.27;21.33;;;;;;;7.42;79.88;96398.66;5060940;28;20739;-80
2022/10/17 23:08:47;;;;;;;45.40;20.20;;;;;;;7.12;79.81;96355.34;5062452;28;20175;-80
2022/10/17 23:11:13;;;;;;;37.50;18.57;;;;;;;7.34;80.00;96388.09;5070821;28;20202;-80
2022/10/17 23:13:39;;;;;;;38.73;18.40;;;;;;;7.24;79.74;96379.50;5073409;28;20196;-80
2022/10/17 23:16:05;;;;;;;50.27;21.67;;;;;;;7.32;80.23;96401.34;5073459;28;20153;-80
2022/10/17 23:18:31;;;;;;;63.33;21.87;;;;;;;7.28;80.00;96397.38;5064471;28;20551;-80
2022/10/17 23:20:57;;;;;;;49.90;20.57;;;;;;;7.10;79.75;96373.84;5064025;28;20236;-80
2022/10/17 23:23:22;;;;;;;48.47;19.53;;;;;;;6.94;80.47;96344.91;5064344;28;20229;-80
2022/10/17 23:25:48;;;;;;;41.63;19.57;;;;;;;7.11;80.50;96375.47;5058534;28;20183;-79
2022/10/17 23:28:14;;;;;;;45.83;21.70;;;;;;;6.89;80.30;96349.78;5053424;28;20220;-80
2022/10/17 23:30:40;;;;;;;49.27;22.30;;;;;;;7.10;80.59;96400.00;5053527;28;20246;-79
2022/10/17 23:33:05;;;;;;;40.97;20.67;;;;;;;7.05;80.97;96394.44;5063799;28;20254;-80
2022/10/17 23:35:32;;;;;;;42.80;19.60;;;;;;;7.04;80.59;96392.78;5063901;28;20533;-80
2022/10/17 23:37:57;;;;;;;44.33;20.73;;;;;;;6.86;80.58;96359.72;5063968;28;20303;-82
2022/10/17 23:40:23;;;;;;;40.20;21.70;;;;;;;6.78;81.18;96353.44;5054370;28;20257;-80
2022/10/17 23:42:48;;;;;;;51.13;20.80;;;;;;;6.79;80.97;96362.13;5052817;28;20654;-80
2022/10/17 23:45:14;;;;;;;33.80;18.40;;;;;;;6.78;80.83;96371.78;5076928;28;20223;-79
2022/10/17 23:47:39;;;;;;;30.43;15.60;;;;;;;6.50;81.53;96349.25;5060444;28;20670;-80
2022/10/17 23:50:05;;;;;;;40.13;18.97;;;;;;;6.68;81.79;96367.56;5062165;28;20175;-80
2022/10/17 23:52:31;;;;;;;40.00;18.77;;;;;;;6.76;82.12;96372.88;5060906;28;20171;-79
2022/10/17 23:54:56;;;;;;;37.60;18.83;;;;;;;6.70;81.76;96355.16;5052624;28;20162;-80
2022/10/17 23:57:21;;;;;;;36.83;19.47;;;;;;;6.53;81.65;96330.66;5060472;28;20205;-80
2022/10/17 23:59:47;;;;;;;33.80;18.47;;;;;;;6.71;80.91;96362.06;5063484;28;20193;-80
